Rapports des METAR proches

 

LFAQ - Bray, France
Distance from station: SSO 19km
Mise à jour: 17/02/2020 16:00
Clair
Clair
 Vent OSO
Vent: OSO 37 km/h
Température: 10°C
Température au vent: 6°C
Point de rosée: 3°C
Humidité: 62%
Baromètre: 1015 hPa
Résumé: Clair
Visibility: greater than 10 km
2020/02/17 15:00 LFAQ 171500Z AUTO 24020KT CAVOK 10/03 Q1015 TEMPO 25025G48KT 2000 TSRAGS BKN020CB
LFQQ - Lille/Lesquin, France
Distance from station: NNE 53km
Mise à jour: 17/02/2020 16:00
Pluie faible, Orage
Pluie faible, Orage
 Vent SO
Vent: SO 33 km/h
Température: 8°C
Température au vent: 3°C
Point de rosée: 5°C
Humidité: 82%
Baromètre: 1013 hPa
Résumé: Pluie faible
Clouds: Orage
Visibility: 10 km
Cloud details: Quelques nuages 366 m
Partiellement nuageux 945 m
Très nuageux 1311 m
2020/02/17 15:00 LFQQ 171500Z AUTO 23018KT 9999 -RA FEW012/// SCT031/// BKN043/// ///TCU 08/05 Q1013 TEMPO 25025G48KT 3000 SHRA BKN025CB
EBCV - Chievres Ab, Belgium
Distance from station: NE 88km
Mise à jour: 17/02/2020 15:55
Très nuageux
Très nuageux
 Vent OSO
Vent: OSO 35 km/h
Température: 10°C
Température au vent: 6°C
Point de rosée: 3°C
Humidité: 62%
Baromètre: 1014 hPa
Clouds: Très nuageux
Visibility: 10 km
Cloud details: Très nuageux 1311 m
2020/02/17 14:55 EBCV 171455Z AUTO 24019KT 9999 BKN043/// 10/03 Q1014 BLU
 
LFOB - Beauvais/Tille(A, France
Distance from station: SSO 88km
Mise à jour: 17/02/2020 16:00
Clair
Clair
 Vent OSO
Vent: OSO 35 km/h, Rafale: 59 km/h
Température: 11°C
Point de rosée: 2°C
Humidité: 54%
Baromètre: 1016 hPa
Résumé: Clair
Visibility: greater than 10 km
2020/02/17 15:00 LFOB 171500Z AUTO 25019G32KT CAVOK 11/02 Q1016 TEMPO 3000 SHRA BKN030CB
LFAT - Le Touquet/P. Pl, France
Distance from station: ONO 93km
Mise à jour: 17/02/2020 16:00
Pluie faible, Orage
Pluie faible, Orage
 Vent OSO
Vent: OSO 35 km/h, Rafale: 70 km/h
Température: 9°C
Température au vent: 5°C
Point de rosée: 6°C
Humidité: 82%
Baromètre: 1013 hPa
Résumé: Pluie faible
Clouds: Orage
Visibility: 10 km
Cloud details: Très nuageux 579 m
Très nuageux 762 m
Très nuageux 975 m
2020/02/17 15:00 LFAT 171500Z AUTO 24019G38KT 210V280 9999 -RA BKN019/// BKN025/// BKN032/// ///TCU 09/06 Q1013 TEMPO 24025G48KT 2000 TSRAGS BKN015CB
EBFN - Koksijde (bel-Af, Belgium
Distance from station: N 105km
Mise à jour: 17/02/2020 15:55
Très nuageux
Très nuageux
 Vent SO
Vent: SO 31 km/h
Température: 8°C
Température au vent: 3°C
Point de rosée: 5°C
Humidité: 82%
Baromètre: 1012 hPa
Clouds: Très nuageux
Visibility: 10 km
Cloud details: Quelques nuages 671 m
Très nuageux 792 m
2020/02/17 14:55 EBFN 171455Z 22017KT 9999 FEW022TCU BKN026 08/05 Q1012 RESHRA BLU BLU TEMPO WHT
 
EBOS - Oostende Airport, Belgium
Distance from station: N 119km
Mise à jour: 17/02/2020 15:50
Très nuageux
Très nuageux
 Vent SO
Vent: SO 31 km/h
Température: 7°C
Température au vent: 3°C
Point de rosée: 5°C
Humidité: 87%
Baromètre: 1012 hPa
Clouds: Très nuageux
Visibility: 10 km
Cloud details: Quelques nuages 610 m
Très nuageux 975 m
2020/02/17 14:50 EBOS 171450Z 23017KT 9999 FEW020 BKN032 07/05 Q1012 NOSIG
EBCI - Charleroi/Gossel, Belgium
Distance from station: ENE 124km
Mise à jour: 17/02/2020 15:50
Quelques nuages
Quelques nuages
 Vent OSO
Vent: OSO 33 km/h
Température: 9°C
Température au vent: 5°C
Point de rosée: 3°C
Humidité: 66%
Baromètre: 1014 hPa
Clouds: Quelques nuages
Visibility: 10 km
Cloud details: Quelques nuages 853 m
2020/02/17 14:50 EBCI 171450Z 24018KT 210V270 9999 FEW028 09/03 Q1014 TEMPO 24014G30KT
LFPG - Charles De Gaull, France
Distance from station: S 125km
Mise à jour: 17/02/2020 16:00
Quelques nuages
Quelques nuages
 Vent OSO
Vent: OSO 35 km/h
Température: 11°C
Point de rosée: 2°C
Humidité: 54%
Baromètre: 1017 hPa
Clouds: Quelques nuages
Visibility: 10 km
Cloud details: Quelques nuages 1067 m
2020/02/17 15:00 LFPG 171500Z 25019KT 9999 FEW035 11/02 Q1017 TEMPO 23020G40KT
 
LFPT - Cormeilles Vexin, France
Distance from station: SSO 127km
Mise à jour: 17/02/2020 16:00
Clair
Clair
 Vent OSO
Vent: OSO 30 km/h
Température: 11°C
Point de rosée: 1°C
Humidité: 50%
Baromètre: 1017 hPa
Résumé: Clair
Visibility: greater than 10 km
2020/02/17 15:00 LFPT 171500Z AUTO 25016KT CAVOK 11/01 Q1017
LFPB - Paris/Le Bourget, France
Distance from station: S 132km
Mise à jour: 17/02/2020 16:00
Très nuageux
Très nuageux
 Vent OSO
Vent: OSO 28 km/h
Température: 11°C
Point de rosée: 3°C
Humidité: 58%
Baromètre: 1018 hPa
Clouds: Très nuageux
Visibility: 10 km
Cloud details: Partiellement nuageux 1250 m
Très nuageux 3353 m
2020/02/17 15:00 LFPB 171500Z AUTO 24015KT 210V270 9999 SCT041 BKN110 11/03 Q1018 TEMPO 24020G35KT 4000 SHRA SCT015CB
EBFS - Florennes (bel-A, Belgium
Distance from station: E 133km
Mise à jour: 17/02/2020 15:55
Partiellement nuageux
Partiellement nuageux
 Vent OSO
Vent: OSO 24 km/h, Rafale: 46 km/h
Température: 9°C
Température au vent: 6°C
Point de rosée: 1°C
Humidité: 58%
Baromètre: 1014 hPa
Clouds: Partiellement nuageux
Visibility: 10 km
Cloud details: Quelques nuages 914 m
Partiellement nuageux 1219 m
2020/02/17 14:55 EBFS 171455Z 25013G25KT 9999 FEW030 SCT040 09/01 Q1014 BLU BLU TEMPO GRN
 
LFQA - Reims/Prunay, France
Distance from station: SE 143km
Mise à jour: 17/02/2020 16:00
Très nuageux
Très nuageux
 Vent OSO
Vent: OSO 30 km/h, Rafale: 48 km/h
Température: 12°C
Point de rosée: 5°C
Humidité: 63%
Baromètre: 1017 hPa
Clouds: Très nuageux
Visibility: 10 km
Cloud details: Partiellement nuageux 1128 m
Partiellement nuageux 1311 m
Très nuageux 1951 m
2020/02/17 15:00 LFQA 171500Z AUTO 24016G26KT 9999 SCT037 SCT043 BKN064 12/05 Q1017
LFOP - Rouen/Boos (aut), France
Distance from station: SO 144km
Mise à jour: 17/02/2020 16:00

 Vent O
Vent: O 39 km/h, Rafale: 67 km/h
Visibility: 10 km
2020/02/17 15:00 LFOP 171500Z AUTO 27021G36KT 230V310 9999 3900 -RA FEW029/// BKN038/// OVC050/// ///TCU 08/05 Q1017 TEMPO 3000 SHRA BKN020CB
EBBR - Brussels Nationa, Belgium
Distance from station: NE 148km
Mise à jour: 17/02/2020 15:50
Quelques nuages
Quelques nuages
 Vent OSO
Vent: OSO 22 km/h
Température: 10°C
Température au vent: 7°C
Point de rosée: 3°C
Humidité: 62%
Baromètre: 1013 hPa
Clouds: Quelques nuages
Visibility: 10 km
Cloud details: Quelques nuages 1097 m
2020/02/17 14:50 EBBR 171450Z 24012KT 9999 FEW036 10/03 Q1013 NOSIG
 
EBBE - Beauvechain (baf, Belgium
Distance from station: ENE 156km
Mise à jour: 17/02/2020 16:03
Quelques nuages
Quelques nuages
 Vent OSO
Vent: OSO 35 km/h, Rafale: 54 km/h
Température: 9°C
Température au vent: 5°C
Point de rosée: 2°C
Humidité: 62%
Baromètre: 1013 hPa
Clouds: Quelques nuages
Visibility: 10 km
Cloud details: Quelques nuages 823 m
2020/02/17 15:03 EBBE 171503Z 24019G29KT 9999 FEW027 09/02 Q1013 BLU BLU TEMPO WHT
EHFS - Vlissingen, Netherlands
Distance from station: NNE 157km
Mise à jour: 17/02/2020 15:55
Quelques nuages
Quelques nuages
 Vent SO
Vent: SO 48 km/h
Température: 8°C
Température au vent: 3°C
Point de rosée: 4°C
Humidité: 76%
Baromètre: 1011 hPa
Clouds: Quelques nuages
Visibility: 10 km
Cloud details: Quelques nuages 1372 m
2020/02/17 14:55 EHFS 171455Z AUTO 23026KT 9999 FEW045/// 08/04 Q1011 REDZ
LFPV - Villacoublay/Vel, France
Distance from station: SSO 157km
Mise à jour: 17/02/2020 16:00
Quelques nuages
Quelques nuages
 Vent OSO
Vent: OSO 26 km/h
Température: 10°C
Température au vent: 7°C
Point de rosée: 4°C
Humidité: 67%
Baromètre: 1018 hPa
Clouds: Quelques nuages
Visibility: 10 km
Cloud details: Quelques nuages 1158 m
2020/02/17 15:00 LFPV 171500Z AUTO 24014KT 200V260 9999 FEW038 10/04 Q1018 TEMPO 24015G30KT 3500 -SHRA SCT040TCU
 
EGMD - Lydd Airport, United Kingdom
Distance from station: NO 160km
Mise à jour: 17/02/2020 15:50
Pluie faible, Averses, Partiellement nuageux
Pluie faible, Averses, Partiellement nuageux
 Vent OSO
Vent: OSO 46 km/h
Température: 9°C
Température au vent: 4°C
Point de rosée: 8°C
Humidité: 94%
Baromètre: 1011 hPa
Résumé: Pluie faible, Averses
Clouds: Partiellement nuageux
Visibility: 10 km
Cloud details: Quelques nuages 549 m
Partiellement nuageux 823 m
2020/02/17 14:50 EGMD 171450Z 24025KT 9999 -SHRA FEW018 SCT027 09/08 Q1011